Time,TemperatureF,DewpointF,PressureIn,WindDirection,WindDirectionDegrees,WindSpeedMPH,WindSpeedGustMPH,Humidity,HourlyPrecipIn,Conditions,Clouds,dailyrainin,SoftwareType,DateUTC
2013-05-16 00:01:00,60.4,56.0,29.71,NNW,345,0.0,0.0,86,0.00,,,0.00,weatherlink.com 1.10,2013-05-16 04:01:00,
2013-05-16 00:16:00,60.0,56.0,29.71,NNW,345,0.0,0.0,87,0.00,,,0.00,weatherlink.com 1.10,2013-05-16 04:16:00,
2013-05-16 00:31:00,59.2,55.0,29.71,NNW,346,0.0,0.0,86,0.00,,,0.00,weatherlink.com 1.10,2013-05-16 04:31:00,
2013-05-16 00:46:00,59.2,55.0,29.70,NNW,345,0.0,0.0,85,0.00,,,0.00,weatherlink.com 1.10,2013-05-16 04:46:00,
2013-05-16 01:01:00,59.2,55.0,29.70,North,1,0.0,0.0,86,0.00,,,0.00,weatherlink.com 1.10,2013-05-16 05:01:00,
2013-05-16 01:16:00,59.4,55.0,29.70,North,2,0.0,0.0,86,0.00,,,0.00,weatherlink.com 1.10,2013-05-16 05:16:00,
2013-05-16 01:31:00,59.2,55.0,29.70,North,2,0.0,0.0,86,0.00,,,0.00,weatherlink.com 1.10,2013-05-16 05:31:00,
2013-05-16 01:46:00,59.0,55.0,29.70,North,2,0.0,0.0,86,0.00,,,0.00,weatherlink.com 1.10,2013-05-16 05:46:00,
2013-05-16 02:01:00,58.5,54.0,29.70,NNE,19,4.0,10.0,85,0.00,,,0.00,weatherlink.com 1.10,2013-05-16 06:01:00,
2013-05-16 02:16:00,60.8,57.0,29.71,SSW,212,2.0,4.0,86,0.00,,,0.00,weatherlink.com 1.10,2013-05-16 06:16:00,
2013-05-16 02:31:00,60.5,57.0,29.71,NNE,21,0.0,3.0,87,0.00,,,0.00,weatherlink.com 1.10,2013-05-16 06:31:00,
2013-05-16 02:46:00,59.9,56.0,29.71,NE,37,0.0,3.0,86,0.00,,,0.00,weatherlink.com 1.10,2013-05-16 06:46:00,
2013-05-16 03:01:00,59.6,56.0,29.70,North,358,1.0,1.0,86,0.00,,,0.00,weatherlink.com 1.10,2013-05-16 07:01:00,
2013-05-16 03:16:00,59.4,55.0,29.71,North,357,0.0,1.0,86,0.00,,,0.00,weatherlink.com 1.10,2013-05-16 07:16:00,
2013-05-16 03:31:00,58.5,54.0,29.71,SW,224,0.0,1.0,86,0.00,,,0.00,weatherlink.com 1.10,2013-05-16 07:31:00,
2013-05-16 03:46:00,57.8,54.0,29.71,SW,224,0.0,0.0,86,0.00,,,0.00,weatherlink.com 1.10,2013-05-16 07:46:00,
2013-05-16 04:01:00,57.3,53.0,29.71,SW,224,0.0,1.0,85,0.00,,,0.00,weatherlink.com 1.10,2013-05-16 08:01:00,
2013-05-16 04:16:00,57.1,52.0,29.71,SW,224,0.0,0.0,84,0.00,,,0.00,weatherlink.com 1.10,2013-05-16 08:16:00,
2013-05-16 04:31:00,56.7,52.0,29.71,SW,224,0.0,0.0,84,0.00,,,0.00,weatherlink.com 1.10,2013-05-16 08:31:00,
2013-05-16 04:46:00,56.3,52.0,29.71,SW,224,0.0,0.0,84,0.00,,,0.00,weatherlink.com 1.10,2013-05-16 08:46:00,
2013-05-16 05:01:00,56.0,51.0,29.72,SW,224,0.0,0.0,84,0.00,,,0.00,weatherlink.com 1.10,2013-05-16 09:01:00,
2013-05-16 05:16:00,55.9,52.0,29.72,SW,224,0.0,0.0,85,0.00,,,0.00,weatherlink.com 1.10,2013-05-16 09:16:00,
2013-05-16 05:32:00,55.7,51.0,29.72,SW,224,0.0,0.0,85,0.00,,,0.00,weatherlink.com 1.10,2013-05-16 09:32:00,
2013-05-16 05:47:00,55.7,51.0,29.73,SW,224,0.0,0.0,85,0.00,,,0.00,weatherlink.com 1.10,2013-05-16 09:47:00,
2013-05-16 06:02:00,55.4,51.0,29.73,SW,224,0.0,1.0,85,0.00,,,0.00,weatherlink.com 1.10,2013-05-16 10:02:00,
2013-05-16 06:17:00,56.0,52.0,29.74,SW,224,0.0,0.0,86,0.00,,,0.00,weatherlink.com 1.10,2013-05-16 10:17:00,
2013-05-16 06:32:00,57.1,53.0,29.75,SW,224,0.0,0.0,86,0.00,,,0.00,weatherlink.com 1.10,2013-05-16 10:32:00,
2013-05-16 06:47:00,58.8,54.0,29.76,SW,224,0.0,0.0,85,0.00,,,0.00,weatherlink.com 1.10,2013-05-16 10:47:00,
2013-05-16 07:02:00,61.0,57.0,29.76,SW,224,0.0,0.0,87,0.00,,,0.00,weatherlink.com 1.10,2013-05-16 11:02:00,
2013-05-16 07:17:00,63.0,59.0,29.77,SW,224,0.0,1.0,87,0.00,,,0.00,weatherlink.com 1.10,2013-05-16 11:17:00,
2013-05-16 07:32:00,65.0,61.0,29.77,SW,224,0.0,0.0,86,0.00,,,0.00,weatherlink.com 1.10,2013-05-16 11:32:00,
2013-05-16 07:47:00,67.3,62.0,29.78,SW,224,0.0,0.0,84,0.00,,,0.00,weatherlink.com 1.10,2013-05-16 11:47:00,
2013-05-16 08:02:00,69.7,63.0,29.78,NW,304,0.0,1.0,79,0.00,,,0.00,weatherlink.com 1.10,2013-05-16 12:02:00,
2013-05-16 08:17:00,71.2,63.0,29.79,ENE,66,0.0,2.0,75,0.00,,,0.00,weatherlink.com 1.10,2013-05-16 12:17:00,
2013-05-16 08:32:00,71.1,63.0,29.80,NW,313,0.0,2.0,76,0.00,,,0.00,weatherlink.com 1.10,2013-05-16 12:32:00,
2013-05-16 08:47:00,71.1,60.0,29.80,North,354,1.0,3.0,69,0.00,,,0.00,weatherlink.com 1.10,2013-05-16 12:47:00,
2013-05-16 09:02:00,71.9,61.0,29.81,NE,43,3.0,4.0,68,0.00,,,0.00,weatherlink.com 1.10,2013-05-16 13:02:00,
2013-05-16 09:17:00,71.5,60.0,29.82,North,359,1.0,6.0,67,0.00,,,0.00,weatherlink.com 1.10,2013-05-16 13:17:00,
2013-05-16 09:32:00,71.1,60.0,29.83,NNE,28,7.0,7.0,67,0.00,,,0.00,weatherlink.com 1.10,2013-05-16 13:32:00,
2013-05-16 09:47:00,71.8,60.0,29.81,ENE,78,3.0,5.0,67,0.00,,,0.00,weatherlink.com 1.10,2013-05-16 13:47:00,
2013-05-16 10:02:00,72.2,60.0,29.80,ENE,68,1.0,4.0,65,0.00,,,0.00,weatherlink.com 1.10,2013-05-16 14:02:00,
2013-05-16 10:17:00,72.8,56.0,29.81,NE,46,2.0,5.0,56,0.00,,,0.00,weatherlink.com 1.10,2013-05-16 14:17:00,
2013-05-16 10:32:00,73.9,53.0,29.80,South,177,2.0,7.0,49,0.00,,,0.00,weatherlink.com 1.10,2013-05-16 14:32:00,
2013-05-16 10:47:00,74.6,53.0,29.80,SE,129,4.0,5.0,47,0.00,,,0.00,weatherlink.com 1.10,2013-05-16 14:47:00,
2013-05-16 11:03:00,75.1,53.0,29.80,SSE,150,3.0,7.0,47,0.00,,,0.00,weatherlink.com 1.10,2013-05-16 15:03:00,
2013-05-16 11:18:00,75.7,52.0,29.80,SE,134,4.0,7.0,44,0.00,,,0.00,weatherlink.com 1.10,2013-05-16 15:18:00,
2013-05-16 11:33:00,77.5,53.0,29.80,SE,131,2.0,6.0,42,0.00,,,0.00,weatherlink.com 1.10,2013-05-16 15:33:00,
2013-05-16 11:48:00,77.7,53.0,29.79,SSE,161,3.0,7.0,42,0.00,,,0.00,weatherlink.com 1.10,2013-05-16 15:48:00,
2013-05-16 12:03:00,78.9,53.0,29.80,South,172,5.0,8.0,41,0.00,,,0.00,weatherlink.com 1.10,2013-05-16 16:03:00,
2013-05-16 12:18:00,78.9,53.0,29.79,SSE,162,2.0,5.0,41,0.00,,,0.00,weatherlink.com 1.10,2013-05-16 16:18:00,
2013-05-16 12:33:00,79.1,55.0,29.79,WNW,299,2.0,14.0,44,0.00,,,0.00,weatherlink.com 1.10,2013-05-16 16:33:00,
2013-05-16 12:48:00,79.2,56.0,29.78,SW,236,3.0,11.0,45,0.00,,,0.00,weatherlink.com 1.10,2013-05-16 16:48:00,
2013-05-16 13:03:00,78.6,57.0,29.78,WSW,257,6.0,9.0,48,0.00,,,0.00,weatherlink.com 1.10,2013-05-16 17:03:00,
2013-05-16 13:18:00,79.1,58.0,29.79,West,266,5.0,13.0,49,0.00,,,0.00,weatherlink.com 1.10,2013-05-16 17:18:00,
2013-05-16 13:33:00,80.2,59.0,29.79,WNW,288,5.0,19.0,49,0.00,,,0.00,weatherlink.com 1.10,2013-05-16 17:33:00,
2013-05-16 13:48:00,80.1,59.0,29.78,West,269,10.0,17.0,49,0.00,,,0.00,weatherlink.com 1.10,2013-05-16 17:48:00,
2013-05-16 14:03:00,80.3,60.0,29.78,WSW,256,4.0,12.0,50,0.00,,,0.00,weatherlink.com 1.10,2013-05-16 18:03:00,
2013-05-16 14:18:00,80.2,60.0,29.77,WSW,240,7.0,18.0,50,0.00,,,0.00,weatherlink.com 1.10,2013-05-16 18:18:00,
2013-05-16 14:33:00,79.9,60.0,29.77,West,269,4.0,12.0,51,0.00,,,0.00,weatherlink.com 1.10,2013-05-16 18:33:00,
2013-05-16 14:48:00,80.8,60.0,29.77,SW,235,6.0,16.0,49,0.00,,,0.00,weatherlink.com 1.10,2013-05-16 18:48:00,
2013-05-16 15:03:00,80.9,60.0,29.77,West,269,5.0,16.0,50,0.00,,,0.00,weatherlink.com 1.10,2013-05-16 19:03:00,
2013-05-16 15:18:00,80.8,60.0,29.76,WNW,291,4.0,16.0,49,0.00,,,0.00,weatherlink.com 1.10,2013-05-16 19:18:00,
2013-05-16 15:33:00,80.9,60.0,29.76,WSW,239,8.0,17.0,49,0.00,,,0.00,weatherlink.com 1.10,2013-05-16 19:33:00,
2013-05-16 15:48:00,81.7,60.0,29.75,West,281,4.0,17.0,48,0.00,,,0.00,weatherlink.com 1.10,2013-05-16 19:48:00,
2013-05-16 16:03:00,81.5,59.0,29.76,West,272,7.0,18.0,47,0.00,,,0.00,weatherlink.com 1.10,2013-05-16 20:03:00,
2013-05-16 16:18:00,82.2,61.0,29.75,SSW,208,3.0,16.0,48,0.00,,,0.00,weatherlink.com 1.10,2013-05-16 20:18:00,
2013-05-16 16:33:00,82.7,60.0,29.75,West,266,5.0,16.0,47,0.00,,,0.00,weatherlink.com 1.10,2013-05-16 20:33:00,
2013-05-16 16:48:00,82.3,59.0,29.75,WSW,244,10.0,13.0,46,0.00,,,0.00,weatherlink.com 1.10,2013-05-16 20:48:00,
2013-05-16 17:03:00,82.0,60.0,29.75,West,261,6.0,18.0,47,0.00,,,0.00,weatherlink.com 1.10,2013-05-16 21:03:00,
2013-05-16 17:18:00,80.6,59.0,29.75,WSW,238,5.0,14.0,48,0.00,,,0.00,weatherlink.com 1.10,2013-05-16 21:18:00,
2013-05-16 17:33:00,80.0,60.0,29.75,West,264,3.0,11.0,50,0.00,,,0.00,weatherlink.com 1.10,2013-05-16 21:33:00,
2013-05-16 17:48:00,81.5,60.0,29.75,WSW,248,7.0,10.0,49,0.00,,,0.00,weatherlink.com 1.10,2013-05-16 21:48:00,
2013-05-16 18:03:00,81.0,61.0,29.76,SW,231,8.0,9.0,50,0.00,,,0.00,weatherlink.com 1.10,2013-05-16 22:03:00,
2013-05-16 18:18:00,80.7,61.0,29.76,West,271,7.0,13.0,51,0.00,,,0.00,weatherlink.com 1.10,2013-05-16 22:18:00,
2013-05-16 18:33:00,80.1,61.0,29.76,SSW,211,7.0,14.0,52,0.00,,,0.00,weatherlink.com 1.10,2013-05-16 22:33:00,
2013-05-16 18:48:00,79.7,61.0,29.77,SW,218,7.0,11.0,53,0.00,,,0.00,weatherlink.com 1.10,2013-05-16 22:48:00,
2013-05-16 19:03:00,78.7,61.0,29.77,WSW,247,5.0,9.0,55,0.00,,,0.00,weatherlink.com 1.10,2013-05-16 23:03:00,
2013-05-16 19:18:00,78.3,61.0,29.77,WNW,282,3.0,8.0,56,0.00,,,0.00,weatherlink.com 1.10,2013-05-16 23:18:00,
2013-05-16 19:33:00,77.9,61.0,29.77,WSW,247,2.0,8.0,57,0.00,,,0.00,weatherlink.com 1.10,2013-05-16 23:33:00,
2013-05-16 19:48:00,76.8,61.0,29.77,WSW,240,1.0,5.0,59,0.00,,,0.00,weatherlink.com 1.10,2013-05-16 23:48:00,
2013-05-16 20:03:00,75.3,61.0,29.78,WSW,251,1.0,2.0,62,0.00,,,0.00,weatherlink.com 1.10,2013-05-17 00:03:00,
2013-05-16 20:18:00,73.8,62.0,29.79,WSW,252,0.0,1.0,66,0.00,,,0.00,weatherlink.com 1.10,2013-05-17 00:18:00,
2013-05-16 20:33:00,70.7,62.0,29.79,WSW,252,0.0,0.0,75,0.00,,,0.00,weatherlink.com 1.10,2013-05-17 00:33:00,
2013-05-16 20:48:00,68.6,62.0,29.80,WSW,252,0.0,0.0,79,0.00,,,0.00,weatherlink.com 1.10,2013-05-17 00:48:00,
2013-05-16 21:03:00,67.3,61.0,29.80,WSW,252,0.0,0.0,81,0.00,,,0.00,weatherlink.com 1.10,2013-05-17 01:03:00,
2013-05-16 21:18:00,69.3,61.0,29.81,WSW,252,1.0,4.0,75,0.00,,,0.00,weatherlink.com 1.10,2013-05-17 01:18:00,
2013-05-16 21:33:00,70.0,61.0,29.81,SW,225,3.0,4.0,73,0.00,,,0.00,weatherlink.com 1.10,2013-05-17 01:33:00,
2013-05-16 21:48:00,71.0,61.0,29.81,West,273,3.0,6.0,71,0.00,,,0.00,weatherlink.com 1.10,2013-05-17 01:48:00,
2013-05-16 22:03:00,71.4,61.0,29.82,WSW,238,1.0,9.0,70,0.00,,,0.00,weatherlink.com 1.10,2013-05-17 02:03:00,
2013-05-16 22:18:00,71.1,61.0,29.82,West,274,2.0,6.0,71,0.00,,,0.00,weatherlink.com 1.10,2013-05-17 02:18:00,
2013-05-16 22:33:00,70.7,61.0,29.82,WSW,251,3.0,7.0,72,0.00,,,0.00,weatherlink.com 1.10,2013-05-17 02:33:00,
2013-05-16 22:48:00,71.1,61.0,29.82,West,263,1.0,8.0,71,0.00,,,0.00,weatherlink.com 1.10,2013-05-17 02:48:00,
2013-05-16 23:03:00,71.1,61.0,29.82,West,260,2.0,5.0,71,0.00,,,0.00,weatherlink.com 1.10,2013-05-17 03:03:00,
2013-05-16 23:18:00,71.1,61.0,29.82,WSW,245,2.0,7.0,71,0.00,,,0.00,weatherlink.com 1.10,2013-05-17 03:18:00,
2013-05-16 23:33:00,70.9,61.0,29.82,West,279,4.0,7.0,70,0.00,,,0.00,weatherlink.com 1.10,2013-05-17 03:33:00,
2013-05-16 23:48:00,70.8,61.0,29.82,WNW,296,3.0,8.0,70,0.00,,,0.00,weatherlink.com 1.10,2013-05-17 03:48:00,